Time;durP1;ratioP1;P1;durP2;ratioP2;P2;SDS_P1;SDS_P2;PMS_P1;PMS_P2;Temp;Humidity;BMP_temperature;BMP_pressure;BME280_temperature;BME280_humidity;BME280_pressure;Samples;Min_cycle;Max_cycle;Signal;HPM_P1;HPM_P2
2022/06/27 00:01:42;;;;;;;3.23;2.93;;;21.00;99.90;;;;;;4950678;29;20277;-73
2022/06/27 00:04:09;;;;;;;4.63;3.10;;;21.00;99.90;;;;;;4950426;28;20214;-73
2022/06/27 00:06:35;;;;;;;3.53;3.00;;;21.00;99.90;;;;;;4941268;29;20219;-77
2022/06/27 00:09:02;;;;;;;6.20;2.97;;;21.00;99.90;;;;;;4950497;28;20187;-74
2022/06/27 00:11:28;;;;;;;4.30;3.40;;;21.00;99.90;;;;;;4947234;28;20207;-74
2022/06/27 00:13:54;;;;;;;5.30;3.10;;;21.10;99.90;;;;;;4960822;28;20198;-74
2022/06/27 00:16:21;;;;;;;4.07;2.70;;;21.10;99.90;;;;;;4951120;28;20210;-75
2022/06/27 00:18:47;;;;;;;3.67;2.67;;;21.10;99.90;;;;;;4949009;28;20242;-75
2022/06/27 00:21:13;;;;;;;5.27;2.87;;;21.10;99.90;;;;;;4948930;28;20202;-76
2022/06/27 00:23:40;;;;;;;3.47;2.70;;;21.10;99.90;;;;;;4949102;28;20250;-73
2022/06/27 00:26:08;;;;;;;5.20;2.87;;;21.10;99.90;;;;;;4970570;28;20191;-74
2022/06/27 00:28:34;;;;;;;4.37;2.90;;;21.10;99.90;;;;;;4956497;28;20191;-74
2022/06/27 00:31:01;;;;;;;4.00;2.90;;;21.10;99.90;;;;;;4944556;28;20195;-75
2022/06/27 00:33:28;;;;;;;3.83;2.60;;;21.10;99.90;;;;;;4950500;28;20187;-75
2022/06/27 00:35:54;;;;;;;4.80;2.60;;;21.10;99.90;;;;;;4949653;28;20183;-74
2022/06/27 00:38:21;;;;;;;3.43;2.80;;;21.00;99.90;;;;;;4965328;28;20265;-75
2022/06/27 00:40:47;;;;;;;3.77;2.80;;;21.00;99.90;;;;;;4952807;28;20278;-74
2022/06/27 00:43:14;;;;;;;4.50;2.90;;;21.00;99.90;;;;;;4949818;28;20187;-75
2022/06/27 00:45:40;;;;;;;3.30;3.00;;;21.00;99.90;;;;;;4950190;28;20277;-75
2022/06/27 00:48:07;;;;;;;5.20;3.30;;;21.00;99.90;;;;;;4962671;28;20248;-76
2022/06/27 00:50:34;;;;;;;4.57;2.83;;;21.00;99.90;;;;;;4957676;28;20209;-73
2022/06/27 00:53:03;;;;;;;3.50;2.53;;;20.90;99.90;;;;;;4983226;28;20197;-74
2022/06/27 00:55:31;;;;;;;5.63;3.03;;;20.90;99.90;;;;;;4938402;28;20223;-76
2022/06/27 00:58:00;;;;;;;4.30;2.60;;;20.80;99.90;;;;;;4945561;29;20196;-76
2022/06/27 01:00:26;;;;;;;6.93;2.90;;;20.80;99.90;;;;;;4951854;28;20551;-75
2022/06/27 01:02:53;;;;;;;4.47;2.73;;;20.80;99.90;;;;;;4966323;28;20194;-74
2022/06/27 01:05:20;;;;;;;5.20;3.30;;;20.80;99.90;;;;;;4958035;28;20230;-74
2022/06/27 01:07:47;;;;;;;4.00;2.80;;;20.80;99.90;;;;;;4949175;28;20218;-73
2022/06/27 01:10:17;;;;;;;3.43;2.70;;;20.80;99.90;;;;;;4952575;28;20226;-74
2022/06/27 01:12:43;;;;;;;4.83;2.70;;;20.80;99.90;;;;;;4940112;28;20209;-74
2022/06/27 01:15:11;;;;;;;5.83;2.70;;;20.80;99.90;;;;;;4965342;28;20195;-76
2022/06/27 01:17:38;;;;;;;6.33;3.13;;;20.80;99.90;;;;;;4932713;29;20302;-74
2022/06/27 01:20:06;;;;;;;4.10;2.77;;;20.80;99.90;;;;;;4956905;28;20655;-76
2022/06/27 01:22:33;;;;;;;3.87;2.70;;;20.80;99.90;;;;;;4970198;28;20199;-74
2022/06/27 01:24:59;;;;;;;5.90;2.87;;;20.70;99.90;;;;;;4949619;28;20198;-74
2022/06/27 01:27:26;;;;;;;4.47;2.50;;;20.70;99.90;;;;;;4971989;28;20607;-75
2022/06/27 01:29:52;;;;;;;5.47;2.80;;;20.70;99.90;;;;;;4932616;28;20338;-74
2022/06/27 01:32:19;;;;;;;6.70;3.40;;;20.70;99.90;;;;;;4953266;28;20191;-74
2022/06/27 01:34:45;;;;;;;3.67;2.73;;;20.70;99.90;;;;;;4948560;28;20203;-75
2022/06/27 01:37:11;;;;;;;3.63;2.83;;;20.60;99.90;;;;;;4933140;29;20197;-76
2022/06/27 01:39:38;;;;;;;5.07;2.90;;;20.50;99.90;;;;;;4953687;28;20285;-74
2022/06/27 01:42:05;;;;;;;3.07;2.77;;;20.50;99.90;;;;;;4934083;29;20222;-76
2022/06/27 01:44:33;;;;;;;3.23;2.83;;;20.50;99.90;;;;;;4950699;28;20616;-75
2022/06/27 01:47:00;;;;;;;4.77;2.90;;;20.50;99.90;;;;;;4936979;28;20587;-77
2022/06/27 01:49:29;;;;;;;2.97;2.73;;;20.50;99.90;;;;;;4955083;28;20209;-75
2022/06/27 01:51:56;;;;;;;5.60;2.90;;;20.50;99.90;;;;;;4962667;28;20340;-74
2022/06/27 01:54:24;;;;;;;5.03;3.00;;;20.50;99.90;;;;;;4976035;28;20195;-74
2022/06/27 01:56:53;;;;;;;3.30;3.00;;;20.50;99.90;;;;;;4953001;28;20203;-76
2022/06/27 01:59:23;;;;;;;3.50;2.70;;;20.50;99.90;;;;;;4979877;28;20284;-73
2022/06/27 02:01:50;;;;;;;5.37;2.80;;;20.50;99.90;;;;;;4979886;28;20277;-75
2022/06/27 02:04:17;;;;;;;2.93;2.70;;;20.60;99.90;;;;;;4952673;28;20245;-76
2022/06/27 02:06:45;;;;;;;3.10;2.80;;;20.60;99.90;;;;;;4936727;29;20254;-74
2022/06/27 02:09:15;;;;;;;6.90;2.90;;;20.50;99.90;;;;;;4951579;28;20197;-75
2022/06/27 02:11:48;;;;;;;2.97;2.67;;;20.50;99.90;;;;;;4959211;28;20213;-75
2022/06/27 02:14:19;;;;;;;3.07;2.30;;;20.40;99.90;;;;;;4947479;28;20198;-76
2022/06/27 02:16:46;;;;;;;3.63;2.40;;;20.40;99.90;;;;;;4968477;28;20734;-74
2022/06/27 02:19:15;;;;;;;3.83;2.60;;;20.40;99.90;;;;;;4967888;28;20619;-74
2022/06/27 02:21:42;;;;;;;3.53;2.33;;;20.40;99.90;;;;;;4979979;28;20250;-74
2022/06/27 02:24:10;;;;;;;2.57;2.23;;;20.40;99.90;;;;;;4951786;28;20222;-75
2022/06/27 02:26:38;;;;;;;3.00;2.50;;;20.40;99.90;;;;;;4958636;28;20218;-75
2022/06/27 02:29:06;;;;;;;3.70;2.70;;;20.30;99.90;;;;;;4954548;28;20226;-74
2022/06/27 02:31:33;;;;;;;4.53;2.73;;;20.30;99.90;;;;;;4965916;28;20662;-76
2022/06/27 02:34:00;;;;;;;8.83;2.67;;;20.30;99.90;;;;;;4964887;28;20210;-74
2022/06/27 02:36:41;;;;;;;2.63;2.43;;;20.30;99.90;;;;;;4939367;29;20550;-75
2022/06/27 02:39:11;;;;;;;3.23;2.67;;;20.30;99.90;;;;;;4948433;28;20193;-76
2022/06/27 02:41:44;;;;;;;4.33;2.43;;;20.30;99.90;;;;;;4957776;28;20778;-75
2022/06/27 02:44:13;;;;;;;4.10;2.60;;;20.30;99.90;;;;;;4951323;29;20259;-72
2022/06/27 02:46:41;;;;;;;3.13;2.33;;;20.30;99.90;;;;;;4936166;29;20219;-76
2022/06/27 02:49:09;;;;;;;2.67;2.40;;;20.40;99.90;;;;;;4952248;28;20206;-73
2022/06/27 02:52:18;;;;;;;2.63;2.37;;;20.40;99.90;;;;;;4952088;28;20203;-75
2022/06/27 02:55:35;;;;;;;4.67;2.90;;;20.40;99.90;;;;;;4956081;28;20736;-74
2022/06/27 02:58:19;;;;;;;5.87;2.80;;;20.40;99.90;;;;;;4947137;29;20258;-74
2022/06/27 03:00:50;;;;;;;3.03;2.70;;;20.40;99.90;;;;;;4932781;28;20194;-74
2022/06/27 03:03:17;;;;;;;5.23;2.77;;;20.40;99.90;;;;;;4962951;28;20210;-74
2022/06/27 03:06:03;;;;;;;3.33;2.60;;;20.40;99.90;;;;;;4963036;28;20278;-76
2022/06/27 03:08:43;;;;;;;3.53;2.23;;;20.40;99.90;;;;;;4951832;29;20282;-74
2022/06/27 03:11:17;;;;;;;3.70;2.70;;;20.40;99.90;;;;;;4966312;28;20187;-75
2022/06/27 03:13:46;;;;;;;3.43;2.40;;;20.40;99.90;;;;;;4946709;28;20190;-78
2022/06/27 03:16:15;;;;;;;3.50;2.47;;;20.40;99.90;;;;;;4961104;28;20655;-75
2022/06/27 03:18:44;;;;;;;7.80;2.17;;;20.30;99.90;;;;;;4952002;28;20648;-73
2022/06/27 03:21:11;;;;;;;4.10;2.50;;;20.30;99.90;;;;;;4960984;28;20266;-75
2022/06/27 03:23:39;;;;;;;3.27;2.17;;;20.30;99.90;;;;;;4934531;29;20278;-74
2022/06/27 03:26:06;;;;;;;4.77;2.40;;;20.30;99.90;;;;;;4936156;29;20195;-74
2022/06/27 03:28:33;;;;;;;3.43;2.40;;;20.30;99.90;;;;;;4951682;29;20195;-75
2022/06/27 03:31:00;;;;;;;3.17;2.40;;;20.30;99.90;;;;;;4934365;29;20190;-74
2022/06/27 03:33:26;;;;;;;3.03;2.60;;;20.30;99.90;;;;;;4935229;29;20193;-73
2022/06/27 03:35:53;;;;;;;2.63;2.20;;;20.30;99.90;;;;;;4960989;28;20640;-74
2022/06/27 03:38:19;;;;;;;4.77;2.70;;;20.30;99.90;;;;;;4951577;28;20278;-76
2022/06/27 03:40:46;;;;;;;4.27;2.80;;;20.40;99.90;;;;;;4951296;29;20198;-73
2022/06/27 03:43:14;;;;;;;4.17;2.70;;;20.40;99.90;;;;;;4949869;28;20593;-74
2022/06/27 03:45:41;;;;;;;3.23;2.80;;;20.40;99.90;;;;;;4947989;28;20190;-76
2022/06/27 03:48:08;;;;;;;4.33;2.53;;;20.40;99.90;;;;;;4962090;28;20630;-75
2022/06/27 03:50:36;;;;;;;3.47;2.50;;;20.40;99.90;;;;;;4961049;28;20261;-74
2022/06/27 03:53:03;;;;;;;3.50;2.60;;;20.40;99.90;;;;;;4951887;28;20660;-76
2022/06/27 03:55:30;;;;;;;4.07;2.30;;;20.40;99.90;;;;;;4970376;28;20194;-74
2022/06/27 03:57:58;;;;;;;4.20;2.57;;;20.40;99.90;;;;;;4950363;28;20207;-74
2022/06/27 04:00:32;;;;;;;6.67;2.33;;;20.40;99.90;;;;;;4966898;28;20940;-73
2022/06/27 04:02:59;;;;;;;3.00;2.30;;;20.40;99.90;;;;;;4960097;28;20537;-75
2022/06/27 04:05:26;;;;;;;3.00;2.37;;;20.40;99.90;;;;;;4949781;29;20222;-76
2022/06/27 04:07:52;;;;;;;2.97;2.33;;;20.50;99.90;;;;;;4959871;28;20217;-74
2022/06/27 04:10:19;;;;;;;3.50;2.40;;;20.60;99.90;;;;;;4955728;28;20188;-75
2022/06/27 04:12:45;;;;;;;2.73;2.20;;;20.70;99.90;;;;;;4933914;28;20221;-73
2022/06/27 04:15:12;;;;;;;3.40;2.47;;;20.80;99.90;;;;;;4933582;29;20841;-76
2022/06/27 04:17:39;;;;;;;3.30;2.57;;;20.80;99.90;;;;;;4964583;28;20194;-74
2022/06/27 04:20:06;;;;;;;3.40;2.30;;;20.80;99.90;;;;;;4967134;28;20666;-76
2022/06/27 04:22:33;;;;;;;3.80;2.20;;;20.90;99.90;;;;;;4949791;29;20191;-77
2022/06/27 04:25:01;;;;;;;2.87;2.10;;;20.90;99.90;;;;;;4949803;28;20623;-76
2022/06/27 04:27:28;;;;;;;2.70;2.03;;;21.00;99.90;;;;;;4953995;28;20247;-75
2022/06/27 04:29:55;;;;;;;2.40;1.80;;;21.00;99.90;;;;;;4952928;28;20186;-74
2022/06/27 04:32:25;;;;;;;2.93;2.00;;;21.10;99.90;;;;;;4971315;28;20281;-72
2022/06/27 04:34:52;;;;;;;4.50;2.00;;;21.10;99.90;;;;;;4979638;28;20195;-75
2022/06/27 04:37:20;;;;;;;4.87;2.00;;;21.20;99.90;;;;;;4934402;29;20190;-72
2022/06/27 04:39:47;;;;;;;2.13;1.93;;;21.20;99.90;;;;;;4933880;29;20191;-74
2022/06/27 04:42:15;;;;;;;3.60;2.10;;;21.30;99.90;;;;;;4952742;28;20194;-74
2022/06/27 04:44:43;;;;;;;2.93;2.20;;;21.40;99.90;;;;;;4969142;28;20201;-75
2022/06/27 04:47:13;;;;;;;2.73;2.10;;;21.50;99.90;;;;;;4966513;28;20218;-74
2022/06/27 04:49:42;;;;;;;7.43;2.27;;;21.60;99.90;;;;;;4953971;28;20197;-78
2022/06/27 04:52:11;;;;;;;2.20;2.00;;;21.70;99.90;;;;;;4941186;28;20191;-74
2022/06/27 04:54:37;;;;;;;3.13;2.20;;;21.80;99.90;;;;;;4958552;28;20199;-75
2022/06/27 04:57:05;;;;;;;5.20;2.00;;;21.80;99.90;;;;;;4963661;28;20195;-75
2022/06/27 04:59:32;;;;;;;2.20;1.90;;;21.90;99.90;;;;;;4951101;28;20187;-73
2022/06/27 05:01:58;;;;;;;4.20;2.60;;;21.90;99.90;;;;;;4949091;28;20197;-73
2022/06/27 05:04:24;;;;;;;2.57;2.27;;;22.00;99.90;;;;;;4966674;28;20276;-73
2022/06/27 05:06:51;;;;;;;3.93;2.50;;;22.00;99.90;;;;;;4942727;28;20217;-75
2022/06/27 05:09:17;;;;;;;4.00;2.20;;;22.00;99.90;;;;;;4949244;28;20191;-75
2022/06/27 05:11:50;;;;;;;4.03;2.47;;;22.00;99.90;;;;;;4949779;28;20230;-74
2022/06/27 05:14:17;;;;;;;6.33;2.30;;;22.10;99.90;;;;;;4957100;28;20201;-74
2022/06/27 05:16:43;;;;;;;5.93;2.67;;;22.10;99.90;;;;;;4953393;28;20217;-74
2022/06/27 05:19:10;;;;;;;4.20;2.70;;;22.20;99.90;;;;;;4955134;28;20195;-74
2022/06/27 05:21:37;;;;;;;5.60;2.50;;;22.30;99.90;;;;;;4954834;28;20689;-73
2022/06/27 05:24:05;;;;;;;2.77;2.50;;;22.30;99.90;;;;;;4972279;28;20636;-74
2022/06/27 05:26:32;;;;;;;5.00;2.60;;;22.40;99.90;;;;;;4974426;28;20225;-73
2022/06/27 05:29:01;;;;;;;5.83;2.60;;;22.40;99.90;;;;;;4950151;28;20187;-74
2022/06/27 05:31:28;;;;;;;4.37;2.50;;;22.50;99.90;;;;;;4954840;28;20187;-76
2022/06/27 05:33:56;;;;;;;6.03;2.20;;;22.50;99.90;;;;;;4959926;28;20197;-75
2022/06/27 05:36:22;;;;;;;3.55;2.33;;;22.60;99.90;;;;;;4950511;28;20289;-74
2022/06/27 05:38:49;;;;;;;2.60;2.40;;;22.70;99.90;;;;;;4950282;28;20253;-74
2022/06/27 05:41:15;;;;;;;2.97;2.30;;;22.80;99.90;;;;;;4951771;28;20198;-73
2022/06/27 05:43:42;;;;;;;5.25;2.30;;;22.80;99.90;;;;;;4955136;28;20230;-74
2022/06/27 05:46:11;;;;;;;2.38;2.17;;;22.90;99.90;;;;;;4965386;28;20199;-73
2022/06/27 05:48:37;;;;;;;3.20;2.50;;;22.90;99.90;;;;;;4948249;29;20190;-73
2022/06/27 05:51:04;;;;;;;3.70;2.40;;;23.00;99.90;;;;;;4970671;28;20198;-73
2022/06/27 05:53:32;;;;;;;3.53;2.30;;;23.10;99.90;;;;;;4945972;28;20204;-74
2022/06/27 05:55:59;;;;;;;2.43;2.17;;;23.10;99.90;;;;;;4962869;28;20194;-74
2022/06/27 05:58:26;;;;;;;4.47;2.25;;;23.20;99.90;;;;;;4952603;28;20437;-75
2022/06/27 06:00:53;;;;;;;3.08;2.35;;;23.30;99.90;;;;;;4944551;28;20214;-75
2022/06/27 06:03:20;;;;;;;2.40;1.95;;;23.30;99.90;;;;;;4957848;28;20198;-74
2022/06/27 06:05:46;;;;;;;2.40;1.80;;;23.40;99.90;;;;;;4948959;28;20205;-77
2022/06/27 06:08:14;;;;;;;2.80;1.90;;;23.60;99.90;;;;;;4932741;29;20230;-74
2022/06/27 06:10:41;;;;;;;4.30;1.95;;;23.70;99.90;;;;;;4970729;28;20341;-76
2022/06/27 06:13:07;;;;;;;2.00;1.80;;;23.80;99.90;;;;;;4958157;28;20201;-74
2022/06/27 06:15:34;;;;;;;4.35;1.98;;;24.00;99.90;;;;;;4956051;28;20199;-75
2022/06/27 06:18:03;;;;;;;4.07;2.10;;;24.10;99.90;;;;;;4952415;28;20310;-74
2022/06/27 06:20:31;;;;;;;45.17;3.67;;;24.20;99.90;;;;;;4965752;28;20206;-74
2022/06/27 06:23:00;;;;;;;3.80;2.03;;;24.30;99.90;;;;;;4965487;28;20221;-75
2022/06/27 06:25:27;;;;;;;2.72;1.88;;;24.40;99.90;;;;;;4978512;28;20187;-73
2022/06/27 06:27:56;;;;;;;6.10;2.10;;;24.50;99.40;;;;;;4941340;28;20217;-74
2022/06/27 06:30:24;;;;;;;4.25;2.00;;;24.50;98.60;;;;;;4969157;28;20205;-74
2022/06/27 06:32:50;;;;;;;3.78;1.63;;;24.60;98.10;;;;;;4971533;28;20296;-75
2022/06/27 06:35:18;;;;;;;3.63;1.40;;;24.80;97.30;;;;;;4975631;28;20615;-74
2022/06/27 06:37:45;;;;;;;5.47;1.70;;;24.90;97.60;;;;;;4960751;28;20178;-73
2022/06/27 06:40:16;;;;;;;1.80;1.65;;;25.00;98.40;;;;;;4956345;28;20194;-73
2022/06/27 06:42:42;;;;;;;3.15;1.70;;;25.10;97.40;;;;;;4951528;28;20217;-74
2022/06/27 06:45:10;;;;;;;2.80;1.50;;;25.20;97.50;;;;;;4956681;28;20273;-75
2022/06/27 06:47:46;;;;;;;1.75;1.30;;;25.30;96.60;;;;;;4975917;28;20221;-75
2022/06/27 06:50:18;;;;;;;3.65;1.40;;;25.50;93.70;;;;;;4946798;29;20245;-73
2022/06/27 06:52:49;;;;;;;5.65;1.27;;;25.80;94.60;;;;;;4967843;28;20183;-75
2022/06/27 06:55:24;;;;;;;1.90;1.10;;;26.20;94.10;;;;;;4951419;28;20261;-75
2022/06/27 06:57:51;;;;;;;2.92;1.40;;;26.10;94.20;;;;;;4953766;28;20200;-75
2022/06/27 07:00:20;;;;;;;2.75;1.25;;;26.20;92.70;;;;;;4936954;29;20701;-75
2022/06/27 07:02:48;;;;;;;2.83;1.45;;;26.30;92.70;;;;;;4971040;28;20265;-74
2022/06/27 07:05:16;;;;;;;2.50;1.73;;;26.40;93.20;;;;;;4953170;28;20363;-75
2022/06/27 07:07:43;;;;;;;4.60;2.20;;;26.50;93.00;;;;;;4968261;28;20293;-74
2022/06/27 07:10:16;;;;;;;2.47;1.75;;;26.50;96.10;;;;;;4974928;28;20297;-74
2022/06/27 07:12:43;;;;;;;6.65;2.20;;;26.50;95.00;;;;;;4961104;28;20293;-76
2022/06/27 07:15:12;;;;;;;9.85;2.58;;;26.50;97.30;;;;;;4950429;28;20194;-75
2022/06/27 07:17:48;;;;;;;12.38;2.47;;;26.60;97.60;;;;;;4979041;28;20193;-75
2022/06/27 07:20:20;;;;;;;4.82;2.22;;;26.80;97.80;;;;;;4967439;28;20551;-75
2022/06/27 07:22:49;;;;;;;1.95;1.63;;;26.90;97.90;;;;;;4952699;28;20190;-74
2022/06/27 07:25:19;;;;;;;10.43;2.20;;;26.90;97.50;;;;;;4951234;29;20285;-77
2022/06/27 07:27:46;;;;;;;3.47;2.20;;;27.00;97.80;;;;;;4959665;28;20207;-75
2022/06/27 07:30:15;;;;;;;5.95;2.28;;;27.00;98.80;;;;;;4952082;29;20179;-75
2022/06/27 07:32:43;;;;;;;4.22;2.40;;;27.20;99.90;;;;;;4935143;29;20219;-75
2022/06/27 07:35:12;;;;;;;7.63;2.05;;;27.20;99.90;;;;;;4952054;28;20285;-75
2022/06/27 07:37:47;;;;;;;9.00;2.38;;;27.20;99.90;;;;;;4969218;28;20361;-75
2022/06/27 07:40:17;;;;;;;6.03;2.45;;;27.30;99.90;;;;;;4956850;28;20198;-75
2022/06/27 07:42:44;;;;;;;3.08;2.10;;;27.40;99.90;;;;;;4933979;29;20560;-74
2022/06/27 07:45:14;;;;;;;6.30;2.45;;;27.40;99.90;;;;;;4918566;29;20210;-75
2022/06/27 07:47:44;;;;;;;2.78;2.15;;;27.40;99.90;;;;;;4916053;29;20207;-75
2022/06/27 07:50:36;;;;;;;4.18;2.17;;;27.40;99.90;;;;;;4919567;29;20194;-75
2022/06/27 07:53:13;;;;;;;2.92;2.20;;;27.50;99.90;;;;;;4952153;28;20187;-75
2022/06/27 07:55:43;;;;;;;4.90;2.22;;;27.50;99.90;;;;;;4968681;28;20278;-74
2022/06/27 07:58:14;;;;;;;4.68;2.20;;;27.50;99.90;;;;;;4958154;28;20182;-75
2022/06/27 08:00:43;;;;;;;4.70;2.25;;;27.50;99.90;;;;;;4959182;28;20577;-75
2022/06/27 08:05:58;;;;;;;3.03;2.00;;;27.70;99.90;;;;;;4964906;28;20735;-75
2022/06/27 08:08:26;;;;;;;6.97;2.10;;;27.70;99.90;;;;;;4972505;28;20703;-74
2022/06/27 08:10:54;;;;;;;5.10;1.80;;;27.70;99.90;;;;;;4948972;28;20215;-74
2022/06/27 08:13:21;;;;;;;3.58;2.05;;;27.70;99.90;;;;;;4951894;28;20218;-77
2022/06/27 08:15:48;;;;;;;4.47;2.00;;;27.70;99.90;;;;;;4950140;28;20203;-74
2022/06/27 08:18:18;;;;;;;3.53;1.92;;;27.80;99.90;;;;;;4943891;28;20194;-76
2022/06/27 08:20:48;;;;;;;3.97;1.58;;;27.90;99.90;;;;;;4958375;28;20273;-77
2022/06/27 08:23:16;;;;;;;2.80;2.00;;;28.00;99.90;;;;;;4953529;28;20209;-77
2022/06/27 08:25:43;;;;;;;3.35;1.83;;;28.10;99.90;;;;;;4957469;28;20190;-77
2022/06/27 08:28:12;;;;;;;3.25;1.55;;;28.20;99.90;;;;;;4948543;28;20269;-77
2022/06/27 08:30:42;;;;;;;2.67;1.70;;;28.20;99.90;;;;;;4962057;28;20279;-77
2022/06/27 08:33:10;;;;;;;4.00;1.60;;;28.30;99.50;;;;;;4952468;28;20204;-77
2022/06/27 08:35:39;;;;;;;3.90;1.50;;;28.50;99.10;;;;;;4949123;28;20191;-76
2022/06/27 08:38:06;;;;;;;3.50;1.30;;;28.50;98.70;;;;;;4938260;28;20202;-77
2022/06/27 08:40:37;;;;;;;3.03;1.30;;;28.50;99.60;;;;;;4952845;28;20197;-74
2022/06/27 08:43:04;;;;;;;4.93;1.58;;;28.60;99.90;;;;;;4959170;28;20202;-78
2022/06/27 08:45:32;;;;;;;3.05;1.40;;;28.70;99.30;;;;;;4931505;29;20349;-76
2022/06/27 08:48:06;;;;;;;6.13;2.00;;;28.80;99.10;;;;;;4948361;29;20286;-76
2022/06/27 08:50:35;;;;;;;6.68;1.60;;;28.90;99.10;;;;;;4948033;29;20202;-77
2022/06/27 08:53:03;;;;;;;2.13;1.40;;;29.00;99.80;;;;;;4947821;28;20199;-75
2022/06/27 08:55:34;;;;;;;4.47;1.50;;;29.10;99.50;;;;;;4954398;28;20182;-76
2022/06/27 08:58:06;;;;;;;5.50;1.55;;;29.20;99.30;;;;;;4957384;28;20644;-76
2022/06/27 09:00:40;;;;;;;4.78;1.90;;;29.20;99.50;;;;;;4942940;28;20195;-76
2022/06/27 09:03:17;;;;;;;7.90;2.10;;;29.20;99.70;;;;;;4950257;28;20890;-76
2022/06/27 09:05:53;;;;;;;4.65;1.67;;;29.30;99.50;;;;;;4965948;28;20281;-76
2022/06/27 09:08:23;;;;;;;2.25;1.55;;;29.40;99.60;;;;;;4942696;28;20226;-76
2022/06/27 09:10:50;;;;;;;3.72;1.60;;;29.40;99.20;;;;;;4941936;28;20274;-76
2022/06/27 09:13:18;;;;;;;4.30;1.60;;;29.50;98.90;;;;;;4945907;28;20226;-76
2022/06/27 09:16:06;;;;;;;3.67;1.70;;;29.70;99.30;;;;;;4928131;29;20218;-76
2022/06/27 09:19:06;;;;;;;4.22;1.55;;;29.80;99.00;;;;;;4960700;28;20266;-76
2022/06/27 09:22:09;;;;;;;3.15;1.52;;;29.90;99.00;;;;;;4965693;28;20282;-76
2022/06/27 09:25:22;;;;;;;5.32;1.65;;;29.90;98.30;;;;;;4945914;28;20269;-76
2022/06/27 09:28:01;;;;;;;4.57;1.60;;;30.00;97.90;;;;;;4932289;29;20262;-76
2022/06/27 09:30:38;;;;;;;5.22;1.80;;;30.00;97.80;;;;;;4932416;29;20245;-75
2022/06/27 09:33:09;;;;;;;4.50;1.45;;;30.00;97.70;;;;;;4942012;28;20269;-73
2022/06/27 09:35:39;;;;;;;6.15;1.70;;;30.20;97.40;;;;;;4953064;28;20190;-74
2022/06/27 09:38:09;;;;;;;2.72;1.50;;;30.30;97.40;;;;;;4945506;28;20229;-74
2022/06/27 09:40:39;;;;;;;2.08;1.20;;;30.30;97.10;;;;;;4929230;29;20632;-74
2022/06/27 09:43:16;;;;;;;4.55;1.33;;;30.30;96.80;;;;;;4945553;28;20195;-74
2022/06/27 09:45:45;;;;;;;3.25;1.55;;;30.30;97.00;;;;;;4955974;28;20916;-74
2022/06/27 09:48:12;;;;;;;4.53;1.40;;;30.50;96.90;;;;;;4953474;28;20701;-75
2022/06/27 09:50:40;;;;;;;3.63;1.30;;;30.50;96.90;;;;;;4947174;29;20183;-74
2022/06/27 09:53:08;;;;;;;3.53;1.50;;;30.40;96.90;;;;;;4967535;28;20194;-74
2022/06/27 09:55:36;;;;;;;3.08;1.40;;;30.40;96.60;;;;;;4949976;28;20270;-74
2022/06/27 09:58:07;;;;;;;5.47;1.70;;;30.40;97.10;;;;;;4960407;28;20373;-74
2022/06/27 10:00:40;;;;;;;3.65;1.50;;;30.50;97.00;;;;;;4958730;28;20700;-74
2022/06/27 10:03:08;;;;;;;3.28;1.60;;;30.40;96.60;;;;;;4949326;28;20289;-74
2022/06/27 10:05:36;;;;;;;2.10;1.27;;;30.40;96.90;;;;;;4938993;28;20520;-74
2022/06/27 10:08:05;;;;;;;9.32;1.65;;;30.40;96.40;;;;;;4950537;28;20221;-74
2022/06/27 10:11:08;;;;;;;4.20;1.45;;;30.60;96.60;;;;;;4954930;28;20187;-74
2022/06/27 10:13:42;;;;;;;5.88;1.58;;;30.50;96.50;;;;;;4960875;28;20180;-74
2022/06/27 10:16:15;;;;;;;4.03;1.63;;;30.60;96.80;;;;;;4950225;29;20203;-74
2022/06/27 10:19:05;;;;;;;3.78;1.60;;;30.60;96.40;;;;;;4971406;28;20191;-74
2022/06/27 10:21:40;;;;;;;6.28;1.58;;;30.50;96.80;;;;;;4953132;28;20187;-74
2022/06/27 10:24:26;;;;;;;7.03;1.35;;;30.70;96.80;;;;;;4950558;28;20201;-74
2022/06/27 10:26:55;;;;;;;3.05;1.40;;;30.70;96.50;;;;;;4951206;28;20285;-75
2022/06/27 10:29:34;;;;;;;4.57;1.23;;;30.70;96.60;;;;;;4965312;28;20179;-74
2022/06/27 10:32:07;;;;;;;4.38;1.35;;;30.70;96.50;;;;;;4943819;28;20191;-75
2022/06/27 10:34:46;;;;;;;1.33;1.23;;;30.70;96.20;;;;;;4958656;28;20178;-75
2022/06/27 10:37:25;;;;;;;2.22;1.15;;;30.60;95.90;;;;;;4952571;28;20191;-74
2022/06/27 10:40:20;;;;;;;3.83;1.27;;;30.50;95.90;;;;;;4949182;29;20195;-75
2022/06/27 10:42:56;;;;;;;2.90;1.33;;;30.60;96.40;;;;;;4945230;28;20210;-74
2022/06/27 10:45:29;;;;;;;1.75;1.58;;;30.60;96.10;;;;;;4965529;28;20190;-74
2022/06/27 10:48:03;;;;;;;2.30;1.45;;;30.60;95.80;;;;;;4951146;28;20607;-75
2022/06/27 10:50:42;;;;;;;3.97;1.27;;;30.60;95.50;;;;;;4936644;29;20198;-74
2022/06/27 10:53:23;;;;;;;3.50;1.60;;;30.70;96.00;;;;;;4940327;28;20783;-74
2022/06/27 10:55:49;;;;;;;3.70;1.40;;;30.70;96.10;;;;;;4947918;28;20245;-74
2022/06/27 10:58:29;;;;;;;5.95;1.50;;;30.70;96.00;;;;;;4958750;28;20206;-74
2022/06/27 11:01:15;;;;;;;4.78;1.70;;;30.60;96.20;;;;;;4941542;28;20577;-74
2022/06/27 11:03:42;;;;;;;3.35;1.42;;;30.60;96.30;;;;;;4949029;29;20226;-74
2022/06/27 11:06:13;;;;;;;1.70;1.30;;;30.50;96.00;;;;;;4935087;29;20933;-74
2022/06/27 11:08:46;;;;;;;1.90;1.30;;;30.40;96.40;;;;;;4934587;29;20234;-74
2022/06/27 11:11:23;;;;;;;4.13;1.38;;;30.30;96.40;;;;;;4950408;28;20254;-74
2022/06/27 11:13:58;;;;;;;7.35;1.40;;;30.20;96.60;;;;;;4949444;28;20242;-74
2022/06/27 11:16:33;;;;;;;4.82;1.30;;;30.10;96.50;;;;;;4973289;28;20190;-74
2022/06/27 11:21:51;;;;;;;3.92;1.60;;;30.20;97.30;;;;;;4961905;28;20191;-74
2022/06/27 11:24:17;;;;;;;6.88;1.73;;;30.40;96.60;;;;;;4969799;28;20205;-74
2022/06/27 11:26:51;;;;;;;5.45;1.42;;;30.40;96.30;;;;;;4955781;28;20242;-75
2022/06/27 11:32:14;;;;;;;6.10;1.55;;;30.20;96.20;;;;;;4948349;28;20187;-75
2022/06/27 11:34:50;;;;;;;4.00;1.48;;;30.30;96.20;;;;;;4951118;28;20191;-75
2022/06/27 11:37:22;;;;;;;6.55;1.70;;;30.20;96.30;;;;;;4971027;28;20768;-75
2022/06/27 11:40:06;;;;;;;3.35;1.52;;;30.20;96.40;;;;;;4960468;28;20199;-74
2022/06/27 11:42:35;;;;;;;2.13;1.40;;;30.30;96.80;;;;;;4951984;28;20199;-75
2022/06/27 11:45:13;;;;;;;3.13;1.55;;;30.40;96.70;;;;;;4951609;28;20187;-75
2022/06/27 11:47:44;;;;;;;2.65;1.30;;;30.30;96.70;;;;;;4944520;28;20211;-75
2022/06/27 11:50:20;;;;;;;3.42;1.40;;;30.20;97.10;;;;;;4951998;28;20326;-74
2022/06/27 11:52:52;;;;;;;3.35;1.70;;;30.30;97.30;;;;;;4945609;29;20731;-75
2022/06/27 11:55:24;;;;;;;3.67;1.70;;;30.20;97.00;;;;;;4948983;28;20187;-76
2022/06/27 11:58:00;;;;;;;3.00;1.70;;;30.10;97.40;;;;;;4971022;28;20285;-75
2022/06/27 12:00:31;;;;;;;2.70;1.40;;;30.20;97.70;;;;;;4947586;29;20267;-75
2022/06/27 12:03:07;;;;;;;6.82;1.80;;;30.30;97.80;;;;;;4957202;28;20198;-75
2022/06/27 12:05:38;;;;;;;3.78;1.70;;;30.20;97.80;;;;;;4937711;29;20194;-75
2022/06/27 12:08:09;;;;;;;4.65;1.48;;;30.10;97.30;;;;;;4953477;28;20223;-75
2022/06/27 12:13:34;;;;;;;4.70;1.88;;;30.00;98.50;;;;;;4960499;28;20194;-75
2022/06/27 12:16:02;;;;;;;2.53;1.60;;;30.00;98.70;;;;;;4950236;28;20282;-76
2022/06/27 12:18:40;;;;;;;6.05;1.90;;;29.90;98.80;;;;;;4950528;28;20809;-76
2022/06/27 12:21:07;;;;;;;2.58;1.42;;;29.90;98.90;;;;;;4955316;28;20207;-75
2022/06/27 12:23:34;;;;;;;3.67;1.70;;;30.00;98.40;;;;;;4950967;29;20266;-76
2022/06/27 12:26:00;;;;;;;1.70;1.30;;;29.90;98.40;;;;;;4955773;28;20203;-76
2022/06/27 12:28:30;;;;;;;3.75;1.70;;;29.90;97.80;;;;;;4962029;28;20309;-75
2022/06/27 12:30:57;;;;;;;3.13;1.50;;;29.80;98.20;;;;;;4949327;28;20249;-75
2022/06/27 12:33:24;;;;;;;8.55;1.63;;;29.70;98.60;;;;;;4968544;28;20268;-75
2022/06/27 12:35:50;;;;;;;5.07;1.77;;;29.70;98.00;;;;;;4967127;28;20202;-74
2022/06/27 12:38:17;;;;;;;9.65;1.67;;;29.80;98.10;;;;;;4940601;28;20284;-75
2022/06/27 12:40:43;;;;;;;2.47;1.50;;;29.70;98.70;;;;;;4944518;28;20283;-75
2022/06/27 12:43:10;;;;;;;6.13;1.80;;;29.80;98.90;;;;;;4952829;28;20286;-75
2022/06/27 12:45:38;;;;;;;3.15;1.40;;;29.80;98.20;;;;;;4927997;29;20234;-75
2022/06/27 12:48:07;;;;;;;4.47;1.60;;;29.80;97.90;;;;;;4945405;28;20256;-75
2022/06/27 12:50:35;;;;;;;4.40;1.90;;;29.70;98.60;;;;;;4943672;28;20198;-75
2022/06/27 12:53:02;;;;;;;5.53;1.90;;;29.80;98.70;;;;;;4944542;28;20245;-75
2022/06/27 12:55:28;;;;;;;4.15;2.00;;;29.70;98.90;;;;;;4946819;28;20207;-75
2022/06/27 12:57:57;;;;;;;3.97;1.20;;;29.60;98.80;;;;;;4945662;28;20655;-75
2022/06/27 13:00:23;;;;;;;4.68;1.52;;;29.70;98.40;;;;;;4946115;29;20249;-76
2022/06/27 13:02:50;;;;;;;5.05;1.75;;;29.70;98.40;;;;;;4944861;28;20330;-76
2022/06/27 13:05:17;;;;;;;4.78;2.10;;;29.80;98.80;;;;;;4948724;28;20229;-75
2022/06/27 13:07:43;;;;;;;4.53;2.10;;;29.80;99.20;;;;;;4948845;28;20221;-75
2022/06/27 13:10:10;;;;;;;7.00;1.77;;;29.80;98.50;;;;;;4937910;29;20631;-75
2022/06/27 13:12:36;;;;;;;3.47;1.80;;;29.80;99.00;;;;;;4944443;28;20708;-75